createdAt,value
2023-02-14T00:01:16.383Z,9.27
2023-02-14T00:03:44.219Z,11.35
2023-02-14T00:06:13.550Z,15.48
2023-02-14T00:08:44.293Z,9.48
2023-02-14T00:11:12.673Z,12.25
2023-02-14T00:13:40.012Z,10.68
2023-02-14T00:16:07.446Z,11.98
2023-02-14T00:19:03.460Z,10.00
2023-02-14T00:21:38.290Z,10.82
2023-02-14T00:24:10.968Z,10.63
2023-02-14T00:26:41.242Z,12.77
2023-02-14T00:29:13.363Z,16.27
2023-02-14T00:31:41.663Z,10.15
2023-02-14T00:34:09.522Z,12.85
2023-02-14T00:36:38.678Z,14.05
2023-02-14T00:39:06.726Z,13.15
2023-02-14T00:41:34.959Z,15.50
2023-02-14T00:44:02.212Z,17.52
2023-02-14T00:46:29.564Z,15.73
2023-02-14T00:48:56.838Z,13.60
2023-02-14T00:51:24.122Z,15.15
2023-02-14T00:53:51.511Z,10.88
2023-02-14T00:56:19.477Z,16.15
2023-02-14T00:58:46.793Z,13.80
2023-02-14T01:01:14.283Z,16.05
2023-02-14T01:03:41.559Z,13.82
2023-02-14T01:06:09.000Z,10.65
2023-02-14T01:08:36.255Z,10.48
2023-02-14T01:11:11.821Z,12.35
2023-02-14T01:13:39.368Z,12.45
2023-02-14T01:16:08.617Z,12.52
2023-02-14T01:18:36.907Z,9.70
2023-02-14T01:21:31.498Z,15.48
2023-02-14T01:24:00.842Z,13.20
2023-02-14T01:26:28.366Z,14.02
2023-02-14T01:28:56.094Z,16.05
2023-02-14T01:31:25.716Z,19.45
2023-02-14T01:33:53.121Z,16.73
2023-02-14T01:36:25.595Z,11.02
2023-02-14T01:38:54.706Z,14.52
2023-02-14T01:41:22.284Z,14.95
2023-02-14T01:44:15.712Z,16.42
2023-02-14T01:46:44.091Z,13.13
2023-02-14T01:49:22.329Z,11.63
2023-02-14T01:51:57.155Z,18.42
2023-02-14T01:54:25.234Z,14.50
2023-02-14T01:56:55.975Z,16.17
2023-02-14T01:59:25.305Z,12.52
2023-02-14T02:01:53.450Z,12.73
2023-02-14T02:04:29.074Z,16.52
2023-02-14T02:06:59.036Z,16.23
2023-02-14T02:09:34.890Z,15.65
2023-02-14T02:12:03.025Z,17.58
2023-02-14T02:14:31.603Z,16.77
2023-02-14T02:17:20.819Z,15.20
2023-02-14T02:20:02.589Z,17.75
2023-02-14T02:22:51.293Z,19.95
2023-02-14T02:25:45.089Z,22.35
2023-02-14T02:28:20.491Z,17.95
2023-02-14T02:30:54.323Z,22.60
2023-02-14T02:33:30.624Z,21.98
2023-02-14T02:36:03.581Z,21.42
2023-02-14T02:38:54.143Z,18.55
2023-02-14T02:41:50.535Z,22.70
2023-02-14T02:44:30.574Z,23.17
2023-02-14T02:47:16.052Z,21.88
2023-02-14T02:50:04.144Z,21.33
2023-02-14T02:53:01.297Z,20.90
2023-02-14T02:55:51.677Z,23.60
2023-02-14T02:58:19.856Z,25.10
2023-02-14T03:00:47.513Z,22.85
2023-02-14T03:03:33.503Z,22.20
2023-02-14T03:06:01.065Z,18.80
2023-02-14T03:08:28.267Z,21.88
2023-02-14T03:10:55.671Z,21.02
2023-02-14T03:13:42.852Z,21.95
2023-02-14T03:16:35.146Z,22.08
2023-02-14T03:19:26.986Z,29.88
2023-02-14T03:22:14.982Z,18.38
2023-02-14T03:24:49.971Z,22.23
2023-02-14T03:27:26.119Z,18.05
2023-02-14T03:30:26.112Z,20.40
2023-02-14T03:33:08.760Z,21.63
2023-02-14T03:36:04.117Z,21.05
2023-02-14T03:38:35.148Z,23.55
2023-02-14T03:41:04.369Z,24.00
2023-02-14T03:43:45.842Z,28.95
2023-02-14T03:51:12.196Z,28.80
2023-02-14T03:53:42.898Z,29.08
2023-02-14T03:56:33.267Z,30.00
2023-02-14T03:59:06.131Z,36.67
2023-02-14T04:01:39.646Z,44.60
2023-02-14T04:04:07.011Z,32.67
2023-02-14T04:06:35.462Z,30.77
2023-02-14T04:09:02.863Z,29.80
2023-02-14T04:11:35.137Z,25.58
2023-02-14T04:14:02.851Z,29.23
2023-02-14T04:16:30.366Z,24.73
2023-02-14T04:19:16.847Z,34.10
2023-02-14T04:21:44.194Z,29.27
2023-02-14T04:24:11.460Z,29.83
2023-02-14T04:26:39.077Z,29.52
2023-02-14T04:29:06.455Z,33.50
2023-02-14T04:31:34.382Z,34.55
2023-02-14T04:34:02.981Z,32.53
2023-02-14T04:36:30.694Z,32.80
2023-02-14T04:38:58.075Z,29.30
2023-02-14T04:41:25.328Z,32.17
2023-02-14T04:43:53.762Z,37.05
2023-02-14T04:46:20.989Z,35.85
2023-02-14T04:48:48.351Z,44.78
2023-02-14T04:51:16.325Z,38.58
2023-02-14T04:53:44.200Z,38.58
2023-02-14T04:56:11.901Z,34.13
2023-02-14T04:58:39.096Z,28.13
2023-02-14T05:01:06.960Z,25.95
2023-02-14T05:03:34.278Z,31.52
2023-02-14T05:06:01.588Z,26.40
2023-02-14T05:08:28.882Z,33.72
2023-02-14T05:10:56.122Z,22.80
2023-02-14T05:13:23.482Z,18.17
2023-02-14T05:15:54.808Z,19.38
2023-02-14T05:18:22.073Z,21.23
2023-02-14T05:20:50.688Z,16.90
2023-02-14T05:23:17.926Z,19.55
2023-02-14T05:25:47.798Z,17.15
2023-02-14T05:28:15.474Z,13.40
2023-02-14T05:30:42.944Z,15.57
2023-02-14T05:33:11.853Z,12.68
2023-02-14T05:35:39.569Z,10.82
2023-02-14T05:38:07.395Z,15.95
2023-02-14T05:40:34.688Z,9.75
2023-02-14T05:43:01.956Z,14.65
2023-02-14T05:45:29.338Z,8.02
2023-02-14T05:47:56.660Z,11.70
2023-02-14T05:50:23.903Z,10.32
2023-02-14T05:52:51.172Z,12.05
2023-02-14T05:55:18.611Z,11.70
2023-02-14T05:57:48.005Z,10.65
2023-02-14T06:00:15.882Z,11.40
2023-02-14T06:02:43.160Z,19.38
2023-02-14T06:05:11.461Z,13.20
2023-02-14T06:07:39.192Z,15.52
2023-02-14T06:10:09.952Z,15.38
2023-02-14T06:12:37.542Z,13.48
2023-02-14T06:15:06.264Z,16.23
2023-02-14T06:17:33.974Z,12.50
2023-02-14T06:20:01.304Z,12.93
2023-02-14T06:22:30.610Z,12.00
2023-02-14T06:27:29.790Z,21.52
2023-02-14T06:29:57.242Z,10.88
2023-02-14T06:32:24.613Z,12.63
2023-02-14T06:34:51.868Z,11.23
2023-02-14T06:37:20.145Z,10.40
2023-02-14T06:39:47.390Z,18.73
2023-02-14T06:42:15.250Z,11.73
2023-02-14T06:44:42.935Z,16.70
2023-02-14T06:47:11.069Z,10.68
2023-02-14T06:49:39.790Z,7.88
2023-02-14T06:52:07.201Z,8.82
2023-02-14T06:54:34.867Z,8.30
2023-02-14T06:57:04.538Z,9.00
2023-02-14T06:59:31.934Z,9.82
2023-02-14T07:01:59.274Z,8.45
2023-02-14T07:04:26.542Z,11.38
2023-02-14T07:06:53.832Z,10.98
2023-02-14T07:09:21.086Z,13.25
2023-02-14T07:11:48.679Z,15.05
2023-02-14T07:14:22.236Z,10.93
2023-02-14T07:16:49.799Z,16.95
2023-02-14T07:19:17.350Z,13.02
2023-02-14T07:21:44.795Z,17.10
2023-02-14T07:24:12.020Z,18.85
2023-02-14T07:26:40.017Z,16.88
2023-02-14T07:29:07.634Z,18.05
2023-02-14T07:31:35.172Z,18.48
2023-02-14T07:34:02.721Z,19.83
2023-02-14T07:36:30.013Z,19.70
2023-02-14T07:38:57.513Z,21.67
2023-02-14T07:41:24.795Z,20.63
2023-02-14T07:43:52.694Z,18.27
2023-02-14T07:46:20.305Z,20.10
2023-02-14T07:48:48.820Z,20.80
2023-02-14T07:51:16.151Z,18.88
2023-02-14T07:53:43.447Z,18.42
2023-02-14T07:56:10.683Z,18.10
2023-02-14T07:58:38.193Z,16.80
2023-02-14T08:01:05.618Z,21.10
2023-02-14T08:03:34.058Z,17.88
2023-02-14T08:06:01.336Z,21.10
2023-02-14T08:08:29.892Z,19.00
2023-02-14T08:11:02.734Z,16.67
2023-02-14T08:13:30.194Z,19.67
2023-02-14T08:16:07.455Z,14.80
2023-02-14T08:18:38.266Z,11.65
2023-02-14T08:21:06.688Z,16.15
2023-02-14T08:23:34.142Z,14.02
2023-02-14T08:26:01.405Z,13.80
2023-02-14T08:28:33.117Z,17.02
2023-02-14T08:31:01.755Z,10.88
2023-02-14T08:33:29.422Z,15.80
2023-02-14T08:35:56.802Z,13.43
2023-02-14T08:38:24.434Z,14.27
2023-02-14T08:40:51.960Z,11.65
2023-02-14T08:43:19.246Z,13.15
2023-02-14T08:45:48.479Z,10.73
2023-02-14T08:48:15.788Z,11.32
2023-02-14T08:50:44.023Z,11.80
2023-02-14T08:53:12.382Z,17.08
2023-02-14T08:55:39.904Z,11.10
2023-02-14T08:58:07.551Z,9.25
2023-02-14T09:00:35.397Z,14.55
2023-02-14T09:03:05.025Z,13.20
2023-02-14T09:05:33.580Z,11.30
2023-02-14T09:08:02.457Z,12.32
2023-02-14T09:10:30.059Z,9.80
2023-02-14T09:12:57.910Z,7.75
2023-02-14T09:15:25.231Z,9.10
2023-02-14T09:17:53.022Z,18.15
2023-02-14T09:20:20.473Z,10.60
2023-02-14T09:22:48.893Z,13.85
2023-02-14T09:25:20.134Z,9.27
2023-02-14T09:27:47.328Z,9.05
2023-02-14T09:30:15.169Z,9.05
2023-02-14T09:32:43.219Z,6.90
2023-02-14T09:35:10.650Z,10.85
2023-02-14T09:37:56.424Z,10.60
2023-02-14T09:40:24.100Z,9.30
2023-02-14T09:43:00.742Z,7.15
2023-02-14T09:45:30.423Z,8.50
2023-02-14T09:48:00.047Z,8.65
2023-02-14T09:50:42.561Z,7.40
2023-02-14T09:53:15.897Z,9.13
2023-02-14T09:55:56.363Z,10.82
2023-02-14T09:58:33.825Z,6.43
2023-02-14T10:01:29.259Z,6.90
2023-02-14T10:04:08.187Z,6.72
2023-02-14T10:06:45.337Z,8.45
2023-02-14T10:09:43.204Z,6.90
2023-02-14T10:12:14.696Z,6.65
2023-02-14T10:14:42.021Z,4.88
2023-02-14T10:17:33.242Z,3.53
2023-02-14T10:20:02.282Z,8.15
2023-02-14T10:23:11.482Z,7.10
2023-02-14T10:25:50.450Z,5.63
2023-02-14T10:28:18.216Z,4.35
2023-02-14T10:30:52.554Z,6.20
2023-02-14T10:33:22.860Z,8.05
2023-02-14T10:35:52.728Z,8.10
2023-02-14T10:38:40.840Z,7.30
2023-02-14T10:41:49.140Z,4.90
2023-02-14T10:44:26.181Z,7.63
2023-02-14T10:47:04.861Z,3.58
2023-02-14T10:49:38.114Z,8.55
2023-02-14T10:52:17.202Z,8.77
2023-02-14T10:54:50.615Z,4.00
2023-02-14T10:57:25.268Z,3.58
2023-02-14T10:59:56.660Z,4.10
2023-02-14T11:02:39.996Z,3.47
2023-02-14T11:05:07.428Z,5.40
2023-02-14T11:07:35.372Z,3.67
2023-02-14T11:10:11.560Z,3.97
2023-02-14T11:12:41.084Z,4.90
2023-02-14T11:15:09.386Z,5.10
2023-02-14T11:17:37.415Z,3.33
2023-02-14T11:20:26.574Z,3.97
2023-02-14T11:22:54.096Z,5.70
2023-02-14T11:25:23.683Z,2.50
2023-02-14T11:28:02.106Z,1.75
2023-02-14T11:30:41.074Z,4.65
2023-02-14T11:33:29.695Z,3.58
2023-02-14T11:35:57.076Z,4.95
2023-02-14T11:38:30.629Z,5.38
2023-02-14T11:40:58.724Z,4.30
2023-02-14T11:43:39.849Z,2.05
2023-02-14T11:46:26.026Z,1.95
2023-02-14T11:48:58.062Z,2.63
2023-02-14T11:51:30.104Z,4.85
2023-02-14T11:54:06.341Z,8.02
2023-02-14T11:56:49.992Z,4.10
2023-02-14T11:59:23.222Z,5.80
2023-02-14T12:01:50.542Z,4.47
2023-02-14T12:04:23.523Z,2.97
2023-02-14T12:06:51.278Z,5.78
2023-02-14T12:09:23.418Z,3.47
2023-02-14T12:11:58.248Z,6.07
2023-02-14T12:14:28.697Z,5.22
2023-02-14T12:17:07.406Z,5.10
2023-02-14T12:19:57.983Z,6.35
2023-02-14T12:22:32.598Z,4.57
2023-02-14T12:25:21.438Z,3.45
2023-02-14T12:27:56.246Z,3.42
2023-02-14T12:30:24.933Z,4.15
2023-02-14T12:32:58.594Z,3.60
2023-02-14T12:35:39.745Z,4.50
2023-02-14T12:38:48.137Z,3.53
2023-02-14T12:41:27.323Z,2.30
2023-02-14T12:43:55.978Z,3.78
2023-02-14T12:46:35.374Z,8.00
2023-02-14T12:49:16.789Z,6.20
2023-02-14T12:51:53.662Z,3.65
2023-02-14T12:54:30.081Z,6.65
2023-02-14T12:57:25.266Z,3.60
2023-02-14T13:00:12.693Z,5.03
2023-02-14T13:02:49.070Z,6.35
2023-02-14T13:05:38.432Z,5.97
2023-02-14T13:08:13.582Z,5.40
2023-02-14T13:11:05.799Z,7.57
2023-02-14T13:13:51.428Z,10.93
2023-02-14T13:16:21.578Z,5.65
2023-02-14T13:19:19.975Z,7.10
2023-02-14T13:21:47.194Z,7.05
2023-02-14T13:24:21.446Z,6.40
2023-02-14T13:26:53.756Z,3.50
2023-02-14T13:29:27.449Z,4.28
2023-02-14T13:31:57.812Z,7.63
2023-02-14T13:34:31.991Z,4.15
2023-02-14T13:36:59.763Z,7.20
2023-02-14T13:39:38.478Z,5.03
2023-02-14T13:42:06.755Z,5.15
2023-02-14T13:44:45.420Z,6.38
2023-02-14T13:47:31.576Z,4.85
2023-02-14T13:50:00.738Z,3.42
2023-02-14T13:52:48.132Z,5.43
2023-02-14T13:55:23.558Z,5.28
2023-02-14T13:58:17.353Z,5.43
2023-02-14T14:00:46.916Z,5.90
2023-02-14T14:03:35.513Z,4.50
2023-02-14T14:06:06.819Z,2.70
2023-02-14T14:08:33.947Z,5.68
2023-02-14T14:11:26.056Z,3.65
2023-02-14T14:14:01.523Z,8.32
2023-02-14T14:16:35.001Z,4.43
2023-02-14T14:19:17.561Z,6.28
2023-02-14T14:21:45.633Z,7.28
2023-02-14T14:24:25.333Z,4.63
2023-02-14T14:27:00.782Z,8.98
2023-02-14T14:29:39.489Z,4.25
2023-02-14T14:32:11.635Z,4.93
2023-02-14T14:34:51.407Z,4.07
2023-02-14T14:37:29.581Z,4.57
2023-02-14T14:39:59.229Z,5.18
2023-02-14T14:42:31.561Z,7.18
2023-02-14T14:45:07.452Z,4.22
2023-02-14T14:47:45.371Z,3.47
2023-02-14T14:50:24.009Z,4.07
2023-02-14T14:52:53.505Z,4.63
2023-02-14T14:55:23.056Z,7.00
2023-02-14T14:57:58.206Z,7.47
2023-02-14T15:00:33.461Z,7.55
2023-02-14T15:03:06.762Z,11.68
2023-02-14T15:05:39.358Z,6.18
2023-02-14T15:08:19.089Z,8.65
2023-02-14T15:11:41.464Z,4.32
2023-02-14T15:14:11.428Z,6.43
2023-02-14T15:16:51.131Z,5.88
2023-02-14T15:19:45.880Z,4.85
2023-02-14T15:22:25.719Z,4.60
2023-02-14T15:24:53.073Z,5.10
2023-02-14T15:27:24.979Z,2.72
2023-02-14T15:30:00.355Z,3.50
2023-02-14T15:32:30.381Z,5.57
2023-02-14T15:34:58.066Z,4.25
2023-02-14T15:37:25.446Z,6.78
2023-02-14T15:39:58.119Z,4.38
2023-02-14T15:42:32.569Z,4.15
2023-02-14T15:45:27.984Z,4.43
2023-02-14T15:47:56.552Z,2.97
2023-02-14T15:50:29.695Z,4.47
2023-02-14T15:53:23.789Z,5.45
2023-02-14T15:56:07.189Z,4.55
2023-02-14T15:58:36.209Z,4.03
2023-02-14T16:01:03.969Z,3.38
2023-02-14T16:03:37.092Z,4.82
2023-02-14T16:06:04.626Z,4.45
2023-02-14T16:08:39.247Z,3.67
2023-02-14T16:11:14.626Z,2.97
2023-02-14T16:13:44.362Z,4.07
2023-02-14T16:16:12.848Z,5.07
2023-02-14T16:18:50.114Z,6.35
2023-02-14T16:21:24.328Z,4.60
2023-02-14T16:24:07.057Z,5.45
2023-02-14T16:26:35.307Z,5.75
2023-02-14T16:29:03.729Z,8.48
2023-02-14T16:31:31.680Z,4.28
2023-02-14T16:33:59.613Z,2.95
2023-02-14T16:36:30.869Z,4.40
2023-02-14T16:38:58.252Z,8.43
2023-02-14T16:41:27.364Z,3.42
2023-02-14T16:43:55.097Z,3.50
2023-02-14T16:46:29.315Z,3.17
2023-02-14T16:48:57.306Z,6.38
2023-02-14T16:51:28.834Z,4.55
2023-02-14T16:56:33.883Z,5.50
2023-02-14T16:59:02.006Z,4.82
2023-02-14T17:01:30.092Z,10.75
2023-02-14T17:03:57.885Z,7.30
2023-02-14T17:06:27.662Z,6.63
2023-02-14T17:08:55.401Z,6.15
2023-02-14T17:11:23.166Z,5.65
2023-02-14T17:13:50.455Z,6.43
2023-02-14T17:16:18.961Z,6.53
2023-02-14T17:18:47.736Z,12.90
2023-02-14T17:21:15.274Z,4.90
2023-02-14T17:23:42.554Z,5.35
2023-02-14T17:26:11.286Z,7.35
2023-02-14T17:28:38.981Z,6.13
2023-02-14T17:31:07.279Z,4.10
2023-02-14T17:33:35.742Z,6.65
2023-02-14T17:36:07.503Z,6.70
2023-02-14T17:38:35.957Z,3.97
2023-02-14T17:41:13.689Z,4.65
2023-02-14T17:43:41.045Z,2.97
2023-02-14T17:46:08.300Z,3.40
2023-02-14T17:48:35.528Z,3.25
2023-02-14T17:51:04.860Z,4.18
2023-02-14T17:53:34.166Z,8.98
2023-02-14T17:56:06.424Z,8.02
2023-02-14T17:58:33.700Z,5.70
2023-02-14T18:01:04.555Z,4.40
2023-02-14T18:03:33.469Z,5.93
2023-02-14T18:06:00.954Z,6.43
2023-02-14T18:08:33.209Z,4.32
2023-02-14T18:11:03.988Z,9.38
2023-02-14T18:13:31.908Z,7.85
2023-02-14T18:16:02.129Z,3.47
2023-02-14T18:18:29.477Z,7.30
2023-02-14T18:20:57.709Z,6.25
2023-02-14T18:23:25.071Z,3.50
2023-02-14T18:25:55.587Z,3.05
2023-02-14T18:28:23.677Z,3.70
2023-02-14T18:30:50.975Z,5.45
2023-02-14T18:33:18.287Z,7.38
2023-02-14T18:35:46.835Z,4.00
2023-02-14T18:38:14.213Z,6.35
2023-02-14T18:40:42.871Z,6.38
2023-02-14T18:43:10.193Z,4.70
2023-02-14T18:45:38.026Z,6.15
2023-02-14T18:48:05.527Z,3.70
2023-02-14T18:50:33.446Z,3.15
2023-02-14T18:53:00.732Z,3.83
2023-02-14T18:55:28.921Z,7.93
2023-02-14T18:57:56.363Z,2.85
2023-02-14T19:00:26.101Z,3.15
2023-02-14T19:02:53.335Z,2.80
2023-02-14T19:05:20.718Z,3.95
2023-02-14T19:07:53.537Z,5.03
2023-02-14T19:10:20.746Z,4.43
2023-02-14T19:12:48.555Z,4.00
2023-02-14T19:15:16.476Z,5.63
2023-02-14T19:17:45.677Z,9.00
2023-02-14T19:20:13.616Z,3.58
2023-02-14T19:22:41.218Z,3.90
2023-02-14T19:25:08.665Z,7.55
2023-02-14T19:27:37.280Z,3.88
2023-02-14T19:30:05.157Z,4.53
2023-02-14T19:32:32.764Z,3.55
2023-02-14T19:34:59.992Z,5.63
2023-02-14T19:37:27.402Z,7.05
2023-02-14T19:39:54.762Z,4.88
2023-02-14T19:42:22.206Z,5.00
2023-02-14T19:44:50.352Z,3.13
2023-02-14T19:47:30.908Z,3.65
2023-02-14T19:50:01.251Z,4.25
2023-02-14T19:52:28.587Z,2.88
2023-02-14T19:54:57.513Z,8.00
2023-02-14T19:57:24.951Z,4.18
2023-02-14T19:59:52.427Z,4.90
2023-02-14T20:02:20.026Z,8.13
2023-02-14T20:04:47.273Z,4.55
2023-02-14T20:07:14.638Z,5.45
2023-02-14T20:09:41.907Z,2.90
2023-02-14T20:12:09.621Z,3.03
2023-02-14T20:14:50.260Z,3.85
2023-02-14T20:17:19.377Z,3.13
2023-02-14T20:19:47.002Z,4.00
2023-02-14T20:22:14.242Z,3.80
2023-02-14T20:24:41.486Z,3.60
2023-02-14T20:27:08.765Z,2.22
2023-02-14T20:29:38.928Z,5.38
2023-02-14T20:32:06.604Z,4.88
2023-02-14T20:34:33.982Z,2.45
2023-02-14T20:37:01.298Z,2.92
2023-02-14T20:39:30.762Z,2.72
2023-02-14T20:41:58.810Z,5.40
2023-02-14T20:44:26.289Z,3.10
2023-02-14T20:46:54.189Z,3.92
2023-02-14T20:49:22.408Z,3.13
2023-02-14T20:51:49.850Z,3.83
2023-02-14T20:54:21.368Z,3.88
2023-02-14T20:56:50.696Z,4.13
2023-02-14T20:59:19.373Z,3.50
2023-02-14T21:01:46.835Z,3.70
2023-02-14T21:04:14.181Z,4.55
2023-02-14T21:06:41.540Z,8.32
2023-02-14T21:09:10.395Z,3.08
2023-02-14T21:11:38.094Z,2.08
2023-02-14T21:14:05.366Z,2.20
2023-02-14T21:16:33.038Z,4.15
2023-02-14T21:19:00.808Z,3.30
2023-02-14T21:21:36.402Z,5.15
2023-02-14T21:24:11.362Z,2.80
2023-02-14T21:26:39.081Z,2.83
2023-02-14T21:29:06.640Z,2.55
2023-02-14T21:31:34.134Z,5.03
2023-02-14T21:34:02.296Z,3.67
2023-02-14T21:36:31.626Z,3.97
2023-02-14T21:38:59.755Z,2.30
2023-02-14T21:41:30.476Z,3.55
2023-02-14T21:43:58.747Z,2.75
2023-02-14T21:46:31.320Z,3.65
2023-02-14T21:49:19.627Z,2.83
2023-02-14T21:51:47.210Z,2.45
2023-02-14T21:54:15.496Z,5.43
2023-02-14T21:56:43.060Z,2.92
2023-02-14T21:59:10.641Z,5.05
2023-02-14T22:01:39.219Z,3.58
2023-02-14T22:04:10.385Z,1.98
2023-02-14T22:06:38.904Z,1.48
2023-02-14T22:09:11.085Z,6.80
2023-02-14T22:11:38.454Z,4.10
2023-02-14T22:14:05.790Z,3.20
2023-02-14T22:16:36.685Z,4.25
2023-02-14T22:19:05.256Z,2.23
2023-02-14T22:21:33.870Z,1.83
2023-02-14T22:24:01.355Z,3.72
2023-02-14T22:26:38.781Z,4.35
2023-02-14T22:29:07.989Z,4.97
2023-02-14T22:31:37.660Z,4.15
2023-02-14T22:34:06.369Z,4.95
2023-02-14T22:36:34.478Z,3.03
2023-02-14T22:39:01.784Z,2.38
2023-02-14T22:41:29.136Z,5.53
2023-02-14T22:43:57.365Z,3.55
2023-02-14T22:46:26.482Z,2.72
2023-02-14T22:48:53.922Z,3.67
2023-02-14T22:51:31.922Z,3.47
2023-02-14T22:54:07.576Z,6.75
2023-02-14T22:56:39.756Z,5.97
2023-02-14T22:59:28.556Z,6.22
2023-02-14T23:01:55.920Z,1.98
2023-02-14T23:04:24.812Z,3.67
2023-02-14T23:06:53.449Z,4.47
2023-02-14T23:09:20.965Z,3.60
2023-02-14T23:11:48.348Z,2.83
2023-02-14T23:14:35.824Z,4.30
2023-02-14T23:17:06.391Z,4.90
2023-02-14T23:19:53.270Z,2.45
2023-02-14T23:22:25.264Z,3.60
2023-02-14T23:24:53.744Z,4.43
2023-02-14T23:27:24.059Z,3.65
2023-02-14T23:29:51.329Z,2.40
2023-02-14T23:32:18.665Z,2.22
2023-02-14T23:34:45.982Z,5.03
2023-02-14T23:37:13.908Z,2.33
2023-02-14T23:39:44.159Z,3.67
2023-02-14T23:42:13.806Z,3.17
2023-02-14T23:44:42.835Z,2.97
2023-02-14T23:47:10.384Z,3.78
2023-02-14T23:49:38.861Z,5.72
2023-02-14T23:52:07.571Z,2.88
2023-02-14T23:54:35.413Z,3.70
2023-02-14T23:57:03.511Z,5.00
2023-02-14T23:59:30.863Z,3.45
